Time;durP1;ratioP1;P1;durP2;ratioP2;P2;SDS_P1;SDS_P2;PMS_P1;PMS_P2;Temp;Humidity;BMP_temperature;BMP_pressure;BME280_temperature;BME280_humidity;BME280_pressure;Samples;Min_cycle;Max_cycle;Signal;HPM_P1;HPM_P2
2023/06/04 00:00:54;;;;;;;2.00;1.87;;;15.30;64.00;;;;;;5029268;28;20560;-64
2023/06/04 00:03:21;;;;;;;1.80;1.70;;;15.30;64.20;;;;;;5024709;28;20210;-64
2023/06/04 00:05:48;;;;;;;2.83;2.10;;;15.20;64.40;;;;;;5011633;28;20206;-64
2023/06/04 00:08:17;;;;;;;2.57;1.90;;;15.20;64.60;;;;;;5028847;28;20284;-64
2023/06/04 00:10:44;;;;;;;3.40;1.80;;;15.10;64.60;;;;;;5029722;28;20186;-65
2023/06/04 00:13:11;;;;;;;3.03;2.10;;;15.10;64.90;;;;;;5023082;28;20252;-64
2023/06/04 00:15:38;;;;;;;2.10;1.90;;;15.10;65.00;;;;;;5029142;28;20210;-64
2023/06/04 00:18:05;;;;;;;2.77;2.07;;;15.10;65.10;;;;;;5029013;28;20264;-64
2023/06/04 00:20:32;;;;;;;2.33;2.03;;;15.00;65.00;;;;;;5028274;28;20754;-64
2023/06/04 00:22:59;;;;;;;2.73;2.07;;;15.00;65.30;;;;;;5007408;28;20198;-64
2023/06/04 00:25:27;;;;;;;3.93;2.17;;;15.00;65.30;;;;;;5029636;28;20229;-64
2023/06/04 00:27:54;;;;;;;2.27;2.13;;;15.00;65.30;;;;;;5028489;28;20210;-64
2023/06/04 00:30:21;;;;;;;3.03;2.50;;;15.00;65.30;;;;;;5028667;28;20725;-64
2023/06/04 00:32:48;;;;;;;2.80;2.20;;;15.00;65.20;;;;;;5028513;28;20635;-64
2023/06/04 00:35:16;;;;;;;2.67;2.27;;;15.00;65.10;;;;;;5028662;28;20256;-64
2023/06/04 00:37:43;;;;;;;2.43;2.23;;;14.90;65.10;;;;;;5011187;28;20731;-64
2023/06/04 00:40:10;;;;;;;4.07;2.10;;;14.90;65.20;;;;;;5011643;28;20272;-64
2023/06/04 00:42:39;;;;;;;2.33;1.90;;;14.80;65.10;;;;;;5028090;28;20206;-64
2023/06/04 00:45:09;;;;;;;1.97;1.77;;;14.90;65.00;;;;;;5010765;28;20260;-64
2023/06/04 00:47:37;;;;;;;2.73;2.40;;;14.90;65.00;;;;;;5028735;28;20660;-64
2023/06/04 00:50:06;;;;;;;2.73;2.17;;;14.90;64.90;;;;;;5028253;28;20222;-64
2023/06/04 00:52:34;;;;;;;3.00;2.10;;;14.80;64.70;;;;;;5007204;28;20671;-64
2023/06/04 00:55:02;;;;;;;2.93;2.27;;;14.80;64.80;;;;;;5028818;28;20197;-64
2023/06/04 00:57:29;;;;;;;3.57;2.03;;;14.80;64.70;;;;;;5028423;28;20710;-64
2023/06/04 00:59:58;;;;;;;2.30;2.07;;;14.80;64.60;;;;;;5002489;28;20203;-64
2023/06/04 01:02:26;;;;;;;2.20;2.00;;;14.80;64.60;;;;;;5008627;28;20561;-64
2023/06/04 01:04:59;;;;;;;2.57;2.00;;;14.80;64.50;;;;;;4987409;28;20203;-64
2023/06/04 01:07:28;;;;;;;3.27;2.10;;;14.80;64.50;;;;;;5004540;28;20232;-64
2023/06/04 01:09:56;;;;;;;3.00;1.97;;;14.70;64.40;;;;;;5007965;28;20197;-64
2023/06/04 01:12:23;;;;;;;2.20;2.00;;;14.70;64.40;;;;;;5008273;28;20234;-64
2023/06/04 01:14:50;;;;;;;2.87;2.10;;;14.70;64.40;;;;;;5003543;28;20199;-64
2023/06/04 01:17:28;;;;;;;2.27;2.07;;;14.70;64.30;;;;;;4990412;28;20257;-64
2023/06/04 01:20:11;;;;;;;1.93;1.70;;;14.70;64.30;;;;;;5007011;28;20608;-64
2023/06/04 01:22:44;;;;;;;2.10;1.90;;;14.60;64.30;;;;;;5008649;28;20252;-64
2023/06/04 01:25:19;;;;;;;2.90;2.10;;;14.60;64.40;;;;;;5009632;28;20195;-64
2023/06/04 01:27:52;;;;;;;1.97;1.80;;;14.50;64.40;;;;;;5011665;28;20197;-64
2023/06/04 01:30:24;;;;;;;1.40;1.30;;;14.50;64.40;;;;;;5008497;28;20216;-64
2023/06/04 01:32:53;;;;;;;2.00;1.80;;;14.40;64.40;;;;;;5011696;28;20586;-63
2023/06/04 01:35:21;;;;;;;2.07;1.87;;;14.40;64.30;;;;;;5011700;28;20299;-63
2023/06/04 01:37:48;;;;;;;1.70;1.60;;;14.40;64.40;;;;;;4994110;28;20624;-63
2023/06/04 01:40:16;;;;;;;2.00;1.80;;;14.30;65.30;;;;;;5008095;28;20203;-63
2023/06/04 01:42:43;;;;;;;2.60;1.90;;;14.30;64.20;;;;;;5005965;28;20285;-63
2023/06/04 01:45:11;;;;;;;1.80;1.70;;;14.30;64.20;;;;;;5003328;28;20237;-63
2023/06/04 01:47:38;;;;;;;1.70;1.60;;;14.20;64.10;;;;;;4994220;28;20210;-63
2023/06/04 01:50:09;;;;;;;1.63;1.53;;;14.20;64.10;;;;;;4994024;28;20214;-62
2023/06/04 01:52:36;;;;;;;2.60;1.70;;;14.20;64.00;;;;;;5010481;28;20293;-63
2023/06/04 01:55:04;;;;;;;1.73;1.40;;;14.20;63.90;;;;;;4994638;28;20212;-63
2023/06/04 01:57:32;;;;;;;1.60;1.50;;;14.10;63.80;;;;;;4993635;28;20238;-63
2023/06/04 01:59:59;;;;;;;1.77;1.40;;;14.10;63.70;;;;;;5007185;28;20208;-64
2023/06/04 02:02:26;;;;;;;1.23;1.20;;;14.20;63.60;;;;;;5031003;28;20532;-64
2023/06/04 02:04:53;;;;;;;1.50;1.30;;;14.10;63.40;;;;;;5030123;28;20754;-64
2023/06/04 02:07:21;;;;;;;1.40;1.30;;;14.10;63.30;;;;;;5014068;28;20247;-63
2023/06/04 02:09:48;;;;;;;1.50;1.40;;;14.00;63.20;;;;;;5030705;28;20218;-64
2023/06/04 02:12:16;;;;;;;1.40;1.30;;;14.00;63.20;;;;;;5008248;28;20255;-63
2023/06/04 02:14:44;;;;;;;1.50;1.40;;;14.00;63.20;;;;;;5011226;28;20335;-65
2023/06/04 02:17:13;;;;;;;1.23;1.13;;;14.00;63.20;;;;;;5031348;28;20239;-63
2023/06/04 02:19:44;;;;;;;1.77;1.30;;;14.00;63.10;;;;;;5030171;28;20217;-64
2023/06/04 02:22:11;;;;;;;1.13;1.10;;;14.00;63.00;;;;;;5030769;28;20196;-63
2023/06/04 02:24:42;;;;;;;4.03;1.43;;;14.00;62.90;;;;;;5030634;28;20209;-64
2023/06/04 02:27:10;;;;;;;1.50;1.40;;;14.00;62.80;;;;;;5030905;28;20198;-63
2023/06/04 02:29:37;;;;;;;1.40;1.20;;;14.00;62.70;;;;;;5030579;28;20200;-64
2023/06/04 02:32:06;;;;;;;1.13;1.10;;;14.00;62.60;;;;;;5028931;28;20284;-64
2023/06/04 02:34:33;;;;;;;1.37;1.27;;;14.00;62.50;;;;;;5027952;28;20551;-63
2023/06/04 02:37:01;;;;;;;1.47;1.37;;;14.00;62.40;;;;;;5012392;28;20200;-64
2023/06/04 02:39:28;;;;;;;1.20;1.10;;;14.00;62.20;;;;;;5030401;28;20193;-64
2023/06/04 02:41:56;;;;;;;2.27;1.10;;;14.00;62.10;;;;;;5013619;28;20236;-64
2023/06/04 02:44:23;;;;;;;1.40;1.30;;;14.00;62.10;;;;;;5010079;28;20229;-64
2023/06/04 02:46:50;;;;;;;1.10;1.10;;;14.10;62.10;;;;;;5031071;28;20201;-64
2023/06/04 02:49:17;;;;;;;2.77;1.37;;;14.10;62.00;;;;;;5028830;28;20554;-63
2023/06/04 02:51:45;;;;;;;1.47;1.17;;;14.10;61.80;;;;;;5029141;28;20205;-63
2023/06/04 02:54:12;;;;;;;3.27;1.03;;;14.20;61.80;;;;;;5022889;28;20232;-63
2023/06/04 02:56:40;;;;;;;1.57;1.27;;;14.20;61.70;;;;;;5012873;28;20213;-63
2023/06/04 02:59:09;;;;;;;1.20;1.10;;;14.20;61.70;;;;;;5023341;28;20348;-63
2023/06/04 03:01:36;;;;;;;1.00;1.00;;;14.20;61.60;;;;;;5012618;28;20292;-63
2023/06/04 03:04:04;;;;;;;1.77;1.30;;;14.20;61.60;;;;;;5029352;28;20998;-63
2023/06/04 03:06:33;;;;;;;1.13;1.07;;;14.20;61.80;;;;;;5030673;28;20202;-64
2023/06/04 03:09:00;;;;;;;1.40;1.30;;;14.10;61.70;;;;;;5012195;28;20624;-63
2023/06/04 03:11:28;;;;;;;1.10;1.10;;;14.10;61.80;;;;;;5030956;28;20276;-64
2023/06/04 03:13:55;;;;;;;1.27;1.00;;;14.10;61.90;;;;;;5009988;28;20202;-64
2023/06/04 03:16:24;;;;;;;1.40;1.30;;;14.10;62.00;;;;;;5011046;28;20286;-65
2023/06/04 03:18:51;;;;;;;1.40;1.30;;;14.10;62.00;;;;;;5029045;28;20201;-64
2023/06/04 03:21:18;;;;;;;1.20;1.10;;;14.00;62.70;;;;;;5030374;28;20211;-64
2023/06/04 03:23:45;;;;;;;1.87;1.30;;;14.00;62.10;;;;;;5011325;28;20197;-65
2023/06/04 03:26:12;;;;;;;1.20;1.10;;;14.00;62.10;;;;;;5030581;28;20254;-65
2023/06/04 03:28:40;;;;;;;1.17;1.10;;;13.90;62.20;;;;;;5011122;28;20221;-65
2023/06/04 03:31:08;;;;;;;1.50;1.17;;;13.90;62.40;;;;;;5012509;28;20241;-65
2023/06/04 03:33:37;;;;;;;4.30;1.23;;;13.90;62.60;;;;;;5006202;28;20231;-64
2023/06/04 03:36:05;;;;;;;1.93;1.10;;;14.00;62.70;;;;;;5007547;28;20536;-64
2023/06/04 03:38:32;;;;;;;2.20;1.37;;;14.00;62.70;;;;;;5010240;28;20202;-65
2023/06/04 03:41:00;;;;;;;1.17;1.07;;;14.10;62.80;;;;;;5030528;28;20658;-65
2023/06/04 03:43:27;;;;;;;1.63;1.40;;;14.10;62.80;;;;;;5008898;28;20200;-63
2023/06/04 03:45:58;;;;;;;1.60;1.40;;;14.10;62.80;;;;;;5012405;28;20216;-65
2023/06/04 03:48:26;;;;;;;1.40;1.30;;;14.10;62.70;;;;;;5027947;28;20197;-64
2023/06/04 03:50:54;;;;;;;1.70;1.60;;;14.20;62.70;;;;;;5010178;28;20682;-64
2023/06/04 03:53:21;;;;;;;2.37;1.50;;;14.20;62.60;;;;;;5010428;28;20203;-64
2023/06/04 03:55:49;;;;;;;1.60;1.50;;;14.20;62.40;;;;;;5030516;28;20211;-63
2023/06/04 03:58:16;;;;;;;1.40;1.30;;;14.30;62.30;;;;;;5010393;28;20298;-64
2023/06/04 04:00:48;;;;;;;1.60;1.50;;;14.30;62.30;;;;;;5010410;28;20196;-64
2023/06/04 04:03:15;;;;;;;1.90;1.80;;;14.30;62.20;;;;;;5025916;28;20260;-64
2023/06/04 04:05:43;;;;;;;1.37;1.27;;;14.30;62.10;;;;;;5012067;28;20227;-64
2023/06/04 04:08:12;;;;;;;1.67;1.57;;;14.30;62.10;;;;;;5029527;28;20209;-64
2023/06/04 04:10:39;;;;;;;1.77;1.67;;;14.30;62.10;;;;;;5029919;28;20209;-64
2023/06/04 04:13:06;;;;;;;1.60;1.50;;;14.30;62.10;;;;;;5021523;28;20248;-65
2023/06/04 04:15:37;;;;;;;2.03;1.50;;;14.40;62.20;;;;;;5007742;28;20297;-64
2023/06/04 04:18:08;;;;;;;1.70;1.60;;;14.40;62.20;;;;;;5008664;28;20229;-65
2023/06/04 04:20:35;;;;;;;2.00;1.50;;;14.40;62.20;;;;;;5010395;28;20198;-65
2023/06/04 04:23:08;;;;;;;1.90;1.40;;;14.40;62.30;;;;;;5029095;28;20190;-65
2023/06/04 04:25:38;;;;;;;1.27;1.17;;;14.40;62.30;;;;;;5012392;28;20206;-64
2023/06/04 04:28:07;;;;;;;1.50;1.40;;;14.50;62.50;;;;;;5010312;28;20197;-64
2023/06/04 04:30:34;;;;;;;1.40;1.30;;;14.50;62.50;;;;;;5008201;28;20320;-64
2023/06/04 04:33:05;;;;;;;1.97;1.67;;;14.50;62.50;;;;;;5010885;28;20213;-64
2023/06/04 04:35:37;;;;;;;1.40;1.30;;;14.60;62.60;;;;;;5011158;28;20204;-65
2023/06/04 04:38:07;;;;;;;4.20;1.50;;;14.60;62.60;;;;;;5020113;28;21076;-64
2023/06/04 04:40:42;;;;;;;2.00;1.47;;;14.70;62.70;;;;;;5025684;28;20219;-64
2023/06/04 04:43:11;;;;;;;1.70;1.43;;;14.70;62.70;;;;;;5009813;28;20292;-64
2023/06/04 04:45:38;;;;;;;1.50;1.30;;;14.80;62.90;;;;;;5010843;28;20217;-64
2023/06/04 04:48:07;;;;;;;2.10;1.60;;;14.80;62.90;;;;;;5011069;28;20214;-64
2023/06/04 04:50:35;;;;;;;2.23;1.70;;;14.90;63.20;;;;;;5010161;28;20230;-64
2023/06/04 04:53:03;;;;;;;2.03;1.53;;;14.90;63.20;;;;;;4999226;28;20225;-64
2023/06/04 04:55:31;;;;;;;3.43;1.50;;;15.00;63.40;;;;;;5000919;28;20291;-63
2023/06/04 04:58:00;;;;;;;1.37;1.27;;;15.10;63.60;;;;;;5010253;28;20242;-63
2023/06/04 05:00:28;;;;;;;1.40;1.30;;;15.10;63.60;;;;;;4998399;28;20632;-64
2023/06/04 05:02:57;;;;;;;3.03;1.30;;;15.20;63.70;;;;;;5007431;28;20678;-65
2023/06/04 05:05:24;;;;;;;1.40;1.30;;;15.20;63.70;;;;;;5031787;28;20663;-64
2023/06/04 05:07:52;;;;;;;1.40;1.30;;;15.30;63.80;;;;;;5014604;28;20225;-65
2023/06/04 05:10:21;;;;;;;1.87;1.53;;;15.30;63.80;;;;;;5015322;28;20586;-65
2023/06/04 05:12:53;;;;;;;1.17;1.13;;;15.40;63.90;;;;;;5013516;28;20894;-64
2023/06/04 05:15:22;;;;;;;1.30;1.20;;;15.40;64.70;;;;;;5014204;28;20220;-64
2023/06/04 05:17:53;;;;;;;1.57;1.47;;;15.50;63.90;;;;;;5014235;28;20240;-64
2023/06/04 05:20:22;;;;;;;1.50;1.40;;;15.60;64.00;;;;;;5013699;28;20297;-64
2023/06/04 05:22:50;;;;;;;1.27;1.23;;;15.60;63.90;;;;;;5032129;28;20205;-65
2023/06/04 05:25:19;;;;;;;1.83;1.20;;;15.60;63.90;;;;;;5009866;28;20210;-64
2023/06/04 05:27:49;;;;;;;1.50;1.40;;;15.70;63.80;;;;;;5031348;28;20663;-64
2023/06/04 05:30:17;;;;;;;1.23;1.13;;;15.70;63.50;;;;;;5012899;28;20229;-64
2023/06/04 05:32:46;;;;;;;0.97;0.97;;;15.80;63.50;;;;;;5013341;28;20531;-63
2023/06/04 05:35:16;;;;;;;0.90;0.90;;;15.80;63.50;;;;;;5013192;28;20289;-63
2023/06/04 05:37:45;;;;;;;2.77;1.13;;;15.90;63.50;;;;;;5009885;28;20722;-64
2023/06/04 05:40:14;;;;;;;1.20;1.20;;;15.90;63.10;;;;;;5028437;28;20939;-63
2023/06/04 05:42:42;;;;;;;1.17;1.17;;;16.00;63.00;;;;;;5013831;28;20651;-64
2023/06/04 05:45:11;;;;;;;1.37;1.27;;;16.00;62.90;;;;;;5007215;28;20249;-64
2023/06/04 05:47:40;;;;;;;1.10;1.10;;;16.10;63.00;;;;;;5014075;28;20232;-64
2023/06/04 05:50:09;;;;;;;1.17;1.10;;;16.10;62.70;;;;;;5012680;28;20787;-64
2023/06/04 05:52:37;;;;;;;1.30;1.20;;;16.20;62.60;;;;;;5024885;28;20771;-64
2023/06/04 05:55:08;;;;;;;1.37;1.20;;;16.20;62.70;;;;;;5017919;28;20301;-64
2023/06/04 05:57:37;;;;;;;1.30;1.17;;;16.30;62.80;;;;;;5011391;28;20214;-64
2023/06/04 06:00:08;;;;;;;1.50;1.40;;;16.40;62.90;;;;;;5003656;28;20190;-64
2023/06/04 06:02:41;;;;;;;1.27;1.07;;;16.40;63.00;;;;;;5031097;28;20566;-64
2023/06/04 06:05:19;;;;;;;3.80;1.50;;;16.50;63.10;;;;;;5012671;28;20198;-64
2023/06/04 06:07:47;;;;;;;3.37;1.60;;;16.50;63.20;;;;;;5011965;28;20237;-64
2023/06/04 06:10:15;;;;;;;2.03;1.53;;;16.60;63.20;;;;;;5030807;28;20252;-64
2023/06/04 06:12:42;;;;;;;1.30;1.30;;;16.60;63.20;;;;;;5030569;28;20203;-64
2023/06/04 06:15:11;;;;;;;1.67;1.57;;;16.70;63.30;;;;;;5008380;28;20290;-64
2023/06/04 06:17:39;;;;;;;1.43;1.33;;;16.80;63.40;;;;;;5005572;28;20210;-64
2023/06/04 06:20:08;;;;;;;1.93;1.73;;;16.80;63.20;;;;;;5029828;28;20654;-64
2023/06/04 06:22:37;;;;;;;1.40;1.30;;;16.90;63.10;;;;;;5013118;28;20206;-64
2023/06/04 06:25:07;;;;;;;2.97;1.27;;;16.90;62.80;;;;;;5003845;28;20198;-65
2023/06/04 06:27:38;;;;;;;1.20;1.10;;;17.00;62.80;;;;;;5012336;28;20214;-64
2023/06/04 06:30:07;;;;;;;1.23;1.17;;;17.10;62.90;;;;;;5031306;28;20217;-64
2023/06/04 06:32:34;;;;;;;1.30;1.20;;;17.10;62.80;;;;;;5028071;28;20191;-64
2023/06/04 06:35:02;;;;;;;0.97;0.87;;;17.20;62.90;;;;;;5024513;28;20281;-64
2023/06/04 06:37:29;;;;;;;0.93;0.93;;;17.30;62.80;;;;;;5029912;28;20198;-64
2023/06/04 06:39:58;;;;;;;0.90;0.90;;;17.40;63.10;;;;;;5027458;28;20226;-65
2023/06/04 06:42:25;;;;;;;0.80;0.80;;;17.40;62.80;;;;;;5027958;28;20631;-64
2023/06/04 06:44:53;;;;;;;0.67;0.67;;;17.50;62.10;;;;;;5027612;28;20190;-63
2023/06/04 06:47:20;;;;;;;0.60;0.53;;;17.50;61.20;;;;;;5027343;28;20202;-64
2023/06/04 06:49:47;;;;;;;0.77;0.77;;;17.60;60.70;;;;;;5027903;28;20210;-64
2023/06/04 06:52:18;;;;;;;0.70;0.70;;;17.60;60.20;;;;;;5020333;28;20571;-64
2023/06/04 06:54:45;;;;;;;0.70;0.70;;;17.70;59.70;;;;;;5030210;28;20277;-64
2023/06/04 06:57:15;;;;;;;0.70;0.70;;;17.70;59.10;;;;;;5030794;28;20726;-64
2023/06/04 06:59:42;;;;;;;0.67;0.67;;;17.80;58.80;;;;;;5029376;28;20277;-63
2023/06/04 07:02:09;;;;;;;0.57;0.57;;;17.90;58.50;;;;;;5030942;28;20232;-63
2023/06/04 07:04:36;;;;;;;0.80;0.80;;;17.90;58.00;;;;;;5006813;28;20207;-64
2023/06/04 07:07:03;;;;;;;0.50;0.50;;;18.00;57.70;;;;;;5031276;28;20223;-64
2023/06/04 07:09:30;;;;;;;0.60;0.60;;;18.00;57.50;;;;;;5028889;28;20206;-64
2023/06/04 07:11:57;;;;;;;0.70;0.70;;;18.10;57.30;;;;;;5031096;28;20201;-63
2023/06/04 07:14:25;;;;;;;0.60;0.60;;;18.20;56.90;;;;;;5028302;28;20318;-64
2023/06/04 07:16:53;;;;;;;0.80;0.80;;;18.20;56.80;;;;;;5029321;28;20239;-64
2023/06/04 07:19:20;;;;;;;1.23;0.63;;;18.30;56.50;;;;;;5010255;28;20696;-64
2023/06/04 07:21:47;;;;;;;0.77;0.77;;;18.40;56.40;;;;;;5030502;28;20198;-63
2023/06/04 07:24:14;;;;;;;0.50;0.50;;;18.40;56.20;;;;;;5028092;28;20204;-64
2023/06/04 07:26:41;;;;;;;0.70;0.70;;;18.50;56.30;;;;;;5030710;28;20260;-65
2023/06/04 07:29:08;;;;;;;0.60;0.60;;;18.60;56.00;;;;;;5027403;28;20271;-64
2023/06/04 07:31:36;;;;;;;0.60;0.60;;;18.60;55.90;;;;;;5030579;28;20238;-64
2023/06/04 07:34:03;;;;;;;0.93;0.93;;;18.70;55.60;;;;;;5026116;28;20273;-64
2023/06/04 07:36:30;;;;;;;0.80;0.80;;;18.80;54.80;;;;;;5029192;28;20278;-64
2023/06/04 07:38:57;;;;;;;0.57;0.57;;;18.80;54.80;;;;;;5007205;28;20207;-64
2023/06/04 07:41:25;;;;;;;2.47;0.80;;;18.90;54.80;;;;;;5030367;28;20211;-64
2023/06/04 07:43:52;;;;;;;0.70;0.70;;;18.90;55.00;;;;;;5028659;28;20196;-64
2023/06/04 07:46:19;;;;;;;2.85;0.90;;;19.00;55.40;;;;;;5002579;28;20205;-65
2023/06/04 07:48:48;;;;;;;1.15;1.13;;;19.00;55.90;;;;;;5028411;28;20654;-65
2023/06/04 07:51:15;;;;;;;0.90;0.90;;;19.10;56.60;;;;;;5029513;28;20304;-64
2023/06/04 07:53:44;;;;;;;1.02;1.02;;;19.10;57.00;;;;;;5018477;28;20197;-64
2023/06/04 07:56:11;;;;;;;0.90;0.90;;;19.20;57.20;;;;;;5029404;28;20203;-65
2023/06/04 07:58:38;;;;;;;2.03;0.90;;;19.20;57.20;;;;;;5027727;28;20741;-65
2023/06/04 08:01:05;;;;;;;0.93;0.93;;;19.30;57.20;;;;;;5029403;28;20256;-65
2023/06/04 08:03:34;;;;;;;0.80;0.80;;;19.30;57.30;;;;;;5027417;28;20209;-65
2023/06/04 08:06:02;;;;;;;1.67;1.20;;;19.40;57.50;;;;;;5027963;28;20689;-65
2023/06/04 08:08:29;;;;;;;1.97;1.50;;;19.40;57.70;;;;;;5009853;28;20232;-64
2023/06/04 08:10:57;;;;;;;1.40;1.30;;;19.50;57.90;;;;;;5028529;28;20212;-65
2023/06/04 08:13:24;;;;;;;3.80;1.02;;;19.50;58.00;;;;;;5011097;28;20208;-65
2023/06/04 08:15:51;;;;;;;1.40;1.30;;;19.50;57.80;;;;;;5028907;28;20201;-65
2023/06/04 08:18:18;;;;;;;0.90;0.85;;;19.50;57.70;;;;;;5028671;28;20198;-65
2023/06/04 08:20:45;;;;;;;2.22;1.08;;;19.60;57.70;;;;;;5028145;28;20224;-64
2023/06/04 08:23:14;;;;;;;1.65;0.85;;;19.60;57.50;;;;;;5027468;28;20198;-64
2023/06/04 08:25:41;;;;;;;2.60;1.20;;;19.70;57.50;;;;;;5029413;28;20195;-65
2023/06/04 08:28:08;;;;;;;2.35;1.48;;;19.70;57.40;;;;;;5026806;28;20241;-65
2023/06/04 08:30:36;;;;;;;1.65;1.55;;;19.80;57.30;;;;;;5027926;28;20606;-65
2023/06/04 08:33:03;;;;;;;1.33;1.23;;;19.80;57.40;;;;;;5023988;28;20194;-64
2023/06/04 08:35:31;;;;;;;2.97;1.10;;;19.80;57.50;;;;;;5026001;28;20290;-64
2023/06/04 08:37:58;;;;;;;1.70;1.42;;;19.90;57.40;;;;;;5029803;28;20190;-64
2023/06/04 08:40:27;;;;;;;2.30;1.65;;;19.90;57.20;;;;;;5033466;28;20281;-64
2023/06/04 08:42:58;;;;;;;1.73;1.40;;;19.90;57.20;;;;;;5031978;28;20209;-65
2023/06/04 08:45:25;;;;;;;1.20;1.20;;;20.00;57.20;;;;;;5031182;28;20208;-63
2023/06/04 08:47:53;;;;;;;1.13;0.95;;;20.00;57.30;;;;;;5028732;28;20194;-64
2023/06/04 08:50:22;;;;;;;0.90;0.90;;;20.10;57.40;;;;;;5029766;28;20216;-64
2023/06/04 08:52:53;;;;;;;1.13;1.02;;;20.20;57.40;;;;;;5026297;28;20202;-64
2023/06/04 08:55:20;;;;;;;0.95;0.95;;;20.20;57.20;;;;;;5029278;28;20296;-65
2023/06/04 08:57:50;;;;;;;1.08;1.05;;;20.30;57.20;;;;;;5031963;28;20291;-64
2023/06/04 09:00:18;;;;;;;0.80;0.80;;;20.40;57.00;;;;;;5032673;28;20206;-64
2023/06/04 09:02:46;;;;;;;1.02;0.93;;;20.40;56.80;;;;;;5029609;28;20652;-64
2023/06/04 09:05:20;;;;;;;0.93;0.93;;;20.50;56.40;;;;;;5026598;28;20203;-65
2023/06/04 09:07:48;;;;;;;1.15;0.80;;;20.60;56.30;;;;;;5015165;28;20203;-64
2023/06/04 09:10:20;;;;;;;0.68;0.68;;;20.60;56.10;;;;;;5032859;28;20260;-65
2023/06/04 09:12:50;;;;;;;1.77;1.20;;;20.60;55.90;;;;;;5031904;28;20268;-64
2023/06/04 09:15:17;;;;;;;1.00;1.00;;;20.70;55.50;;;;;;5029913;28;20201;-64
2023/06/04 09:17:44;;;;;;;1.35;1.25;;;20.70;55.20;;;;;;5032251;28;20214;-65
2023/06/04 09:20:20;;;;;;;1.13;1.13;;;20.70;54.90;;;;;;5027056;28;20713;-64
2023/06/04 09:22:48;;;;;;;1.00;1.00;;;20.80;54.40;;;;;;5031804;28;20194;-64
2023/06/04 09:25:21;;;;;;;1.23;1.13;;;20.80;54.50;;;;;;5032069;28;20195;-64
2023/06/04 09:27:50;;;;;;;1.10;1.10;;;20.90;54.00;;;;;;5029451;28;20199;-64
2023/06/04 09:30:17;;;;;;;0.98;0.98;;;20.90;53.60;;;;;;5031930;28;20188;-64
2023/06/04 09:32:44;;;;;;;2.15;1.10;;;20.90;53.70;;;;;;5027770;28;20624;-63
2023/06/04 09:35:13;;;;;;;0.90;0.90;;;21.00;53.60;;;;;;5031371;28;20194;-64
2023/06/04 09:37:41;;;;;;;0.88;0.88;;;21.00;53.60;;;;;;5032381;28;20591;-62
2023/06/04 09:40:09;;;;;;;0.70;0.70;;;21.10;53.40;;;;;;5019666;28;20660;-63
2023/06/04 09:42:55;;;;;;;0.88;0.88;;;21.10;53.40;;;;;;5024247;28;20238;-64
2023/06/04 09:45:29;;;;;;;1.20;1.10;;;21.20;53.40;;;;;;5025176;28;20194;-64
2023/06/04 09:47:57;;;;;;;1.40;1.30;;;21.30;52.80;;;;;;5031863;28;20615;-64
2023/06/04 09:50:27;;;;;;;1.67;1.10;;;21.30;53.10;;;;;;5030901;28;20281;-64
2023/06/04 09:52:54;;;;;;;1.30;1.20;;;21.30;52.30;;;;;;5030575;28;20198;-63
2023/06/04 09:55:22;;;;;;;1.08;1.08;;;21.30;52.30;;;;;;5026117;28;20563;-63
2023/06/04 09:57:49;;;;;;;0.95;0.95;;;21.30;52.10;;;;;;5030655;28;20210;-63
2023/06/04 10:00:22;;;;;;;2.13;0.85;;;21.40;51.70;;;;;;5022388;28;20206;-63
2023/06/04 10:02:50;;;;;;;1.00;0.90;;;21.40;51.40;;;;;;5031496;28;20198;-63
2023/06/04 10:05:21;;;;;;;0.95;0.95;;;21.40;51.20;;;;;;5031507;28;20202;-64
2023/06/04 10:07:52;;;;;;;0.80;0.80;;;21.40;51.20;;;;;;5031903;28;20682;-64
2023/06/04 10:10:24;;;;;;;0.93;0.88;;;21.50;51.40;;;;;;5032152;28;20556;-63
2023/06/04 10:12:55;;;;;;;0.88;0.80;;;21.60;51.20;;;;;;5026116;28;20560;-63
2023/06/04 10:15:24;;;;;;;0.80;0.73;;;21.60;50.90;;;;;;5010690;28;20198;-64
2023/06/04 10:17:52;;;;;;;0.88;0.88;;;21.70;51.10;;;;;;5025036;28;20293;-64
2023/06/04 10:20:20;;;;;;;1.25;1.17;;;21.70;51.40;;;;;;5028791;28;20194;-63
2023/06/04 10:22:50;;;;;;;1.02;0.90;;;21.80;50.50;;;;;;5030976;28;20654;-65
2023/06/04 10:25:19;;;;;;;0.90;0.90;;;21.80;50.30;;;;;;5031490;28;20344;-63
2023/06/04 10:27:47;;;;;;;0.77;0.77;;;21.80;50.40;;;;;;5030419;28;20226;-64
2023/06/04 10:30:14;;;;;;;0.60;0.60;;;21.90;50.70;;;;;;5031378;28;20197;-63
2023/06/04 10:32:43;;;;;;;0.73;0.73;;;21.90;50.70;;;;;;5030660;28;20249;-64
2023/06/04 10:35:11;;;;;;;0.80;0.80;;;22.00;50.70;;;;;;5028769;28;20268;-63
2023/06/04 10:37:38;;;;;;;0.63;0.63;;;22.00;50.60;;;;;;5025987;28;20218;-63
2023/06/04 10:40:07;;;;;;;4.72;1.23;;;22.00;50.60;;;;;;5025695;28;20199;-64
2023/06/04 10:42:40;;;;;;;2.67;1.20;;;22.10;50.50;;;;;;5027532;28;20860;-65
2023/06/04 10:45:09;;;;;;;2.30;1.30;;;22.00;50.20;;;;;;5028584;28;20197;-64
2023/06/04 10:47:40;;;;;;;1.33;1.27;;;22.00;50.10;;;;;;5012024;28;20215;-64
2023/06/04 10:50:12;;;;;;;2.05;1.25;;;22.00;50.20;;;;;;5028674;28;20212;-64
2023/06/04 10:52:51;;;;;;;0.70;0.70;;;22.10;50.60;;;;;;5027504;28;20210;-64
2023/06/04 10:55:18;;;;;;;0.60;0.60;;;22.10;50.90;;;;;;5024641;28;20237;-64
2023/06/04 10:57:53;;;;;;;0.80;0.80;;;22.10;51.40;;;;;;5023065;28;20225;-64
2023/06/04 11:00:21;;;;;;;0.68;0.68;;;22.20;51.50;;;;;;5025502;28;20193;-64
2023/06/04 11:02:53;;;;;;;0.90;0.90;;;22.20;51.60;;;;;;5027579;28;20194;-64
2023/06/04 11:05:21;;;;;;;0.90;0.90;;;22.30;51.60;;;;;;5026203;28;20217;-65
2023/06/04 11:07:50;;;;;;;0.80;0.80;;;22.30;51.40;;;;;;5021492;28;20195;-65
2023/06/04 11:10:18;;;;;;;0.98;0.98;;;22.30;51.40;;;;;;5022348;28;20193;-64
2023/06/04 11:12:46;;;;;;;1.27;1.00;;;22.30;51.40;;;;;;5028734;28;20225;-65
2023/06/04 11:15:14;;;;;;;1.33;1.05;;;22.40;51.50;;;;;;5024016;28;20264;-65
2023/06/04 11:17:52;;;;;;;2.13;1.20;;;22.40;50.90;;;;;;5026622;28;20213;-64
2023/06/04 11:20:21;;;;;;;1.15;1.05;;;22.40;50.60;;;;;;5010915;28;20209;-65
2023/06/04 11:22:55;;;;;;;1.00;1.00;;;22.30;51.00;;;;;;5029982;28;20254;-64
2023/06/04 11:25:24;;;;;;;2.90;1.00;;;22.30;51.70;;;;;;5027893;28;20679;-64
2023/06/04 11:27:55;;;;;;;1.30;1.20;;;22.30;52.40;;;;;;5011041;28;20220;-65
2023/06/04 11:30:22;;;;;;;0.93;0.93;;;22.30;53.30;;;;;;5027584;28;20190;-65
2023/06/04 11:32:50;;;;;;;0.73;0.73;;;22.20;52.90;;;;;;5027695;28;20265;-65
2023/06/04 11:35:17;;;;;;;0.90;0.90;;;22.20;52.50;;;;;;5028903;28;20682;-62
2023/06/04 11:37:55;;;;;;;0.95;0.90;;;22.20;52.30;;;;;;5026492;28;20639;-64
2023/06/04 11:40:23;;;;;;;0.90;0.90;;;22.30;52.20;;;;;;5024228;28;20187;-64
2023/06/04 11:42:51;;;;;;;1.30;0.80;;;22.30;52.10;;;;;;5011188;28;20525;-65
2023/06/04 11:45:19;;;;;;;0.85;0.85;;;22.30;52.20;;;;;;5026223;28;20680;-64
2023/06/04 11:47:48;;;;;;;3.67;1.00;;;22.30;52.40;;;;;;5011421;28;20209;-64
2023/06/04 11:50:15;;;;;;;0.90;0.90;;;22.30;52.10;;;;;;5028775;28;20202;-64
2023/06/04 11:52:43;;;;;;;1.00;1.00;;;22.30;51.70;;;;;;5024489;28;20268;-64
2023/06/04 11:55:13;;;;;;;1.67;1.00;;;22.20;51.00;;;;;;5011989;28;20206;-65
2023/06/04 11:57:41;;;;;;;0.90;0.90;;;22.20;51.00;;;;;;5027077;28;20230;-64
2023/06/04 12:00:10;;;;;;;0.80;0.80;;;22.20;51.10;;;;;;5025840;28;20294;-65
2023/06/04 12:02:37;;;;;;;0.73;0.70;;;22.20;51.10;;;;;;5029420;28;20221;-65
2023/06/04 12:05:15;;;;;;;1.00;1.00;;;22.20;50.90;;;;;;5026860;28;20206;-65
2023/06/04 12:07:42;;;;;;;0.80;0.80;;;22.20;50.90;;;;;;5028309;28;20202;-65
2023/06/04 12:10:12;;;;;;;0.70;0.70;;;22.20;50.90;;;;;;5029446;28;20190;-65
2023/06/04 12:12:40;;;;;;;0.80;0.80;;;22.20;51.60;;;;;;5025644;28;20572;-65
2023/06/04 12:15:09;;;;;;;0.70;0.70;;;22.30;50.70;;;;;;5029488;28;20706;-65
2023/06/04 12:17:37;;;;;;;1.45;0.70;;;22.30;50.40;;;;;;5029139;28;20198;-65
2023/06/04 12:20:05;;;;;;;0.70;0.70;;;22.40;50.30;;;;;;5025257;28;20289;-65
2023/06/04 12:22:33;;;;;;;0.70;0.70;;;22.30;49.60;;;;;;5029447;28;20209;-65
2023/06/04 12:25:02;;;;;;;1.05;0.95;;;22.30;49.30;;;;;;5011866;28;20272;-65
2023/06/04 12:27:31;;;;;;;0.70;0.70;;;22.30;49.30;;;;;;5024986;28;20211;-65
2023/06/04 12:30:00;;;;;;;0.60;0.60;;;22.40;49.80;;;;;;5028782;28;20450;-65
2023/06/04 12:32:28;;;;;;;0.68;0.68;;;22.40;49.50;;;;;;5028108;28;20217;-65
2023/06/04 12:34:55;;;;;;;0.80;0.80;;;22.40;49.60;;;;;;5025744;28;20624;-65
2023/06/04 12:37:25;;;;;;;0.90;0.90;;;22.40;49.50;;;;;;5025034;28;20197;-65
2023/06/04 12:39:52;;;;;;;1.27;0.90;;;22.40;49.40;;;;;;5015022;28;20199;-65
2023/06/04 12:42:20;;;;;;;0.80;0.80;;;22.40;49.40;;;;;;5026574;28;20210;-65
2023/06/04 12:44:48;;;;;;;0.80;0.80;;;22.30;49.50;;;;;;5029065;28;20195;-65
2023/06/04 12:47:16;;;;;;;0.80;0.80;;;22.30;49.60;;;;;;5026113;28;20257;-65
2023/06/04 12:49:43;;;;;;;2.08;0.80;;;22.30;49.20;;;;;;5027868;28;20234;-65
2023/06/04 12:52:10;;;;;;;0.80;0.80;;;22.20;48.90;;;;;;5024553;28;20219;-65
2023/06/04 12:54:37;;;;;;;1.05;0.82;;;22.20;49.10;;;;;;5024575;28;20202;-65